Weather History for KDRM - July, 2013

Change the Weather History Date:

Sunday, July 14, 2013

  Actual Average Record
Temperature  
Mean Temperature 71 °F -  
Max Temperature 84 °F - - ()
Min Temperature 58 °F - - ()
Cooling Degree Days 6    
Growing Degree Days 21 (Base 50)    
Moisture  
Dew Point 60 °F    
Average Humidity 68    
Maximum Humidity 99    
Minimum Humidity 40    
Precipitation  
Precipitation 0.00 in - - ()
Sea Level Pressure  
Sea Level Pressure 30.25 in    
Wind  
Wind Speed 5 mph (SSE)    
Max Wind Speed 8 mph    
Max Gust Speed -    
Visibility 10 miles    
Events      
T = Trace of Precipitation, MM = Missing Value Source: NWS Daily Summary

Daily Weather History Graph

Daily Weather History Graph

Search for Another Location

Airport or City:

Trip Planner

Search our weather history database for the weather conditions in past years. The results will help you decide how hot, cold, wet, or windy it might be!

Date:

Astronomy

Jul. 14, 2013 Rise Set
Actual Time 5:58 AM EDT 9:23 PM EDT
Civil Twilight 5:21 AM EDT 9:59 PM EDT
Nautical Twilight 4:32 AM EDT 10:48 PM EDT
Astronomical Twilight 3:29 AM EDT 11:50 PM EDT
Moon 12:38 PM EDT (7/14) No Moon Set
Length of Visible Light 16h 38m
Length of Day
15h 24m
Waxing Crescent, 35% of the Moon is Illuminated
Jul 14
Waxing Crescent
Jul 15
First Quarter
Jul 22
Full
Jul 29
Last Quarter
Aug 6
New

Hourly Weather History & Observations

Time (EDT) Temp. Heat Index Dew Point Humidity Pressure Visibility Wind Dir Wind Speed Gust Speed Precip Events Conditions
12:16 AM 66.4 °F - 57.0 °F 72% 30.21 in 10.0 mi SSE 8.1 mph - N/A   Clear
12:36 AM 66.2 °F - 57.2 °F 73% 30.21 in 10.0 mi SSE 6.9 mph - N/A   Clear
12:56 AM 65.3 °F - 57.6 °F 76% 30.22 in 10.0 mi SSE 6.9 mph - N/A   Clear
1:16 AM 64.9 °F - 57.6 °F 77% 30.21 in 10.0 mi SSE 6.9 mph - N/A   Clear
1:36 AM 64.6 °F - 57.6 °F 78% 30.22 in 10.0 mi SSE 5.8 mph - N/A   Clear
1:56 AM 65.3 °F - 56.3 °F 73% 30.22 in 10.0 mi South 4.6 mph - N/A   Clear
2:16 AM 65.3 °F - 56.3 °F 73% 30.22 in 10.0 mi SSE 5.8 mph - N/A   Clear
2:36 AM 64.4 °F - 56.3 °F 75% 30.23 in 10.0 mi SSE 5.8 mph - N/A   Clear
2:56 AM 64.6 °F - 56.5 °F 75% 30.23 in 10.0 mi South 5.8 mph - N/A   Clear
3:16 AM 64.4 °F - 56.7 °F 76% 30.23 in 10.0 mi SSE 6.9 mph - N/A   Clear
3:36 AM 64.6 °F - 56.8 °F 76% 30.23 in 10.0 mi SSE 6.9 mph - N/A   Clear
3:56 AM 64.4 °F - 56.8 °F 76% 30.23 in 10.0 mi SSE 5.8 mph - N/A   Clear
4:16 AM 63.1 °F - 57.2 °F 81% 30.23 in 10.0 mi SSE 4.6 mph - N/A   Clear
4:36 AM 62.1 °F - 57.4 °F 85% 30.23 in 10.0 mi SSE 4.6 mph - N/A   Clear
4:56 AM 61.9 °F - 57.6 °F 86% 30.24 in 10.0 mi Calm Calm - N/A   Clear
5:16 AM 60.4 °F - 57.4 °F 90% 30.25 in 10.0 mi Calm Calm - N/A   Clear
5:36 AM 59.2 °F - 57.2 °F 93% 30.25 in 10.0 mi Calm Calm - N/A   Clear
5:56 AM 59.0 °F - 57.4 °F 94% 30.25 in 10.0 mi Calm Calm - N/A   Clear
6:16 AM 58.6 °F - 57.6 °F 96% 30.26 in 10.0 mi Calm Calm - N/A   Clear
6:36 AM 58.5 °F - 57.6 °F 97% 30.26 in 10.0 mi Calm Calm - N/A   Clear
6:56 AM 58.6 °F - 58.5 °F 99% 30.26 in 10.0 mi Calm Calm - N/A   Clear
7:15 AM 61.9 °F - 59.4 °F 91% 30.26 in 10.0 mi Calm Calm - N/A   Clear
7:36 AM 64.8 °F - 59.9 °F 84% 30.26 in 10.0 mi Calm Calm - N/A   Clear
7:56 AM 66.4 °F - 59.7 °F 79% 30.26 in 10.0 mi Calm Calm - N/A   Clear
8:15 AM 68.0 °F - 59.9 °F 75% 30.27 in 10.0 mi Calm Calm - N/A   Clear
8:36 AM 69.6 °F - 60.1 °F 72% 30.27 in 10.0 mi Calm Calm - N/A   Clear
8:56 AM 71.1 °F - 60.3 °F 69% 30.27 in 10.0 mi SE 3.5 mph - N/A   Clear
9:16 AM 72.3 °F - 60.3 °F 66% 30.27 in 10.0 mi SSE 3.5 mph - N/A   Clear
9:36 AM 73.6 °F - 60.8 °F 64% 30.26 in 10.0 mi South 3.5 mph - N/A   Clear
9:56 AM 75.0 °F - 61.0 °F 62% 30.27 in 10.0 mi Calm Calm - N/A   Clear
10:16 AM 75.6 °F - 60.6 °F 60% 30.26 in 10.0 mi Calm Calm - N/A   Clear
10:36 AM 76.6 °F - 59.5 °F 55% 30.26 in 10.0 mi Calm Calm - N/A   Clear
10:56 AM 77.4 °F - 60.6 °F 56% 30.26 in 10.0 mi South 4.6 mph - N/A   Clear
11:16 AM 79.0 °F - 60.3 °F 53% 30.27 in 10.0 mi Calm Calm - N/A   Clear
11:36 AM 79.2 °F - 60.3 °F 52% 30.27 in 10.0 mi SSW 3.5 mph - N/A   Clear
11:56 AM 79.9 °F - 60.1 °F 51% 30.27 in 10.0 mi South 3.5 mph - N/A   Clear
12:16 PM 81.1 °F 81.3 °F 58.1 °F 45% 30.27 in 10.0 mi SW 4.6 mph - N/A   Clear
12:36 PM 81.1 °F 81.4 °F 58.5 °F 46% 30.27 in 10.0 mi SW 5.8 mph - N/A   Clear
12:55 PM 82.0 °F 82.0 °F 58.3 °F 44% 30.27 in 10.0 mi WSW 6.9 mph - N/A   Clear
1:16 PM 82.4 °F 82.0 °F 57.2 °F 42% 30.27 in 10.0 mi SW 6.9 mph - N/A   Clear
1:35 PM 83.5 °F 82.9 °F 57.6 °F 41% 30.27 in 10.0 mi SSW 5.8 mph - N/A   Clear
1:56 PM 83.1 °F 82.7 °F 57.7 °F 42% 30.27 in 10.0 mi SW 4.6 mph - N/A   Clear
2:16 PM 83.7 °F 83.1 °F 57.4 °F 41% 30.27 in 10.0 mi SW 4.6 mph - N/A   Clear
2:36 PM 83.8 °F 83.3 °F 57.9 °F 41% 30.26 in 10.0 mi SSW 6.9 mph - N/A   Clear
2:56 PM 83.5 °F 82.8 °F 56.7 °F 40% 30.26 in 10.0 mi South 6.9 mph - N/A   Clear
3:16 PM 83.8 °F 83.3 °F 57.9 °F 41% 30.26 in 10.0 mi South 3.5 mph - N/A   Clear
3:36 PM 84.2 °F 83.5 °F 57.7 °F 40% 30.25 in 10.0 mi SSW 4.6 mph - N/A   Clear
3:56 PM 84.4 °F 84.0 °F 58.8 °F 42% 30.25 in 10.0 mi South 4.6 mph - N/A   Clear
4:16 PM 82.8 °F 83.0 °F 59.9 °F 46% 30.25 in 10.0 mi South 8.1 mph - N/A   Clear
4:36 PM 81.5 °F 82.5 °F 62.4 °F 52% 30.25 in 10.0 mi South 8.1 mph - N/A   Clear
4:56 PM 80.8 °F 82.0 °F 63.0 °F 54% 30.25 in 10.0 mi SE 6.9 mph - N/A   Clear
5:16 PM 79.2 °F - 62.6 °F 57% 30.25 in 10.0 mi South 6.9 mph - N/A   Clear
5:36 PM 79.3 °F - 61.0 °F 53% 30.25 in 10.0 mi SSE 6.9 mph - N/A   Clear
5:56 PM 79.3 °F - 60.6 °F 53% 30.25 in 10.0 mi SSE 8.1 mph - N/A   Clear
6:16 PM 78.3 °F - 63.0 °F 59% 30.24 in 10.0 mi SSE 6.9 mph - N/A   Clear
6:36 PM 78.1 °F - 62.2 °F 58% 30.24 in 10.0 mi SE 6.9 mph - N/A   Clear
6:56 PM 77.4 °F - 61.7 °F 58% 30.24 in 10.0 mi SSE 5.8 mph - N/A   Clear
7:16 PM 76.6 °F - 61.2 °F 59% 30.24 in 10.0 mi SE 5.8 mph - N/A   Clear
7:36 PM 75.9 °F - 61.3 °F 60% 30.24 in 10.0 mi SSE 8.1 mph - N/A   Clear
7:56 PM 75.0 °F - 62.1 °F 64% 30.24 in 10.0 mi SE 3.5 mph - N/A   Clear
8:16 PM 73.9 °F - 62.4 °F 67% 30.24 in 10.0 mi SE 4.6 mph - N/A   Clear
8:36 PM 72.7 °F - 62.2 °F 70% 30.24 in 10.0 mi SSE 5.8 mph - N/A   Clear
8:56 PM 71.4 °F - 62.6 °F 74% 30.23 in 10.0 mi SSE 6.9 mph - N/A   Clear
9:16 PM 70.2 °F - 62.8 °F 77% 30.24 in 10.0 mi SE 3.5 mph - N/A   Clear
9:36 PM 68.9 °F - 63.0 °F 81% 30.24 in 10.0 mi SSE 4.6 mph - N/A   Clear
9:55 PM 68.2 °F - 63.0 °F 83% 30.25 in 10.0 mi Calm Calm - N/A   Clear
10:16 PM 67.5 °F - 62.6 °F 84% 30.25 in 10.0 mi Calm Calm - N/A   Clear
10:35 PM 66.7 °F - 62.8 °F 87% 30.25 in 10.0 mi SSE 4.6 mph - N/A   Clear
10:56 PM 67.5 °F - 63.0 °F 85% 30.25 in 10.0 mi SSE 4.6 mph - N/A   Clear
11:16 PM 67.3 °F - 63.1 °F 87% 30.25 in 10.0 mi SSE 3.5 mph - N/A   Clear
11:36 PM 66.6 °F - 63.3 °F 89% 30.25 in 10.0 mi SSE 5.8 mph - N/A   Clear
11:56 PM 67.1 °F - 63.5 °F 88% 30.25 in 10.0 mi SSE 4.6 mph - N/A   Clear